createdAt,value
2023-02-25T00:01:09.219Z,11.13
2023-02-25T00:03:12.543Z,11.00
2023-02-25T00:05:14.760Z,17.53
2023-02-25T00:07:16.931Z,17.80
2023-02-25T00:09:19.155Z,15.20
2023-02-25T00:11:23.375Z,17.30
2023-02-25T00:13:25.833Z,11.03
2023-02-25T00:15:28.046Z,15.83
2023-02-25T00:17:30.314Z,23.27
2023-02-25T00:19:32.431Z,21.23
2023-02-25T00:21:34.569Z,20.37
2023-02-25T00:23:36.658Z,11.17
2023-02-25T00:25:39.128Z,15.70
2023-02-25T00:27:41.289Z,21.43
2023-02-25T00:29:43.418Z,11.47
2023-02-25T00:31:46.612Z,14.13
2023-02-25T00:33:50.669Z,22.20
2023-02-25T00:35:52.857Z,11.73
2023-02-25T00:37:59.172Z,26.27
2023-02-25T00:40:14.625Z,22.20
2023-02-25T00:42:18.549Z,15.90
2023-02-25T00:44:20.704Z,19.70
2023-02-25T00:46:24.084Z,23.27
2023-02-25T00:48:27.353Z,16.33
2023-02-25T00:50:29.475Z,22.37
2023-02-25T00:52:33.414Z,13.07
2023-02-25T00:54:35.595Z,16.83
2023-02-25T00:56:38.692Z,18.03
2023-02-25T00:58:40.940Z,19.87
2023-02-25T01:00:51.509Z,18.50
2023-02-25T01:02:56.352Z,23.87
2023-02-25T01:04:59.465Z,14.83
2023-02-25T01:07:03.611Z,44.17
2023-02-25T01:09:08.023Z,18.50
2023-02-25T01:11:29.098Z,23.40
2023-02-25T01:13:31.272Z,18.20
2023-02-25T01:15:33.453Z,16.33
2023-02-25T01:17:35.762Z,15.90
2023-02-25T01:19:38.004Z,19.73
2023-02-25T01:21:42.741Z,11.03
2023-02-25T01:23:49.155Z,14.13
2023-02-25T01:25:51.312Z,14.63
2023-02-25T01:27:57.653Z,13.87
2023-02-25T01:29:59.887Z,13.53
2023-02-25T01:32:04.306Z,22.43
2023-02-25T01:34:08.788Z,15.93
2023-02-25T01:36:11.105Z,16.53
2023-02-25T01:38:13.272Z,13.10
2023-02-25T01:40:17.112Z,11.73
2023-02-25T01:42:19.391Z,14.77
2023-02-25T01:44:33.546Z,11.80
2023-02-25T01:46:37.197Z,18.43
2023-02-25T01:48:40.505Z,14.60
2023-02-25T01:50:46.014Z,9.57
2023-02-25T01:52:48.218Z,12.03
2023-02-25T01:54:54.454Z,17.50
2023-02-25T01:56:57.377Z,18.60
2023-02-25T01:59:00.002Z,26.47
2023-02-25T02:01:02.263Z,18.93
2023-02-25T02:03:04.624Z,16.67
2023-02-25T02:05:07.153Z,14.67
2023-02-25T02:07:09.324Z,16.00
2023-02-25T02:09:14.748Z,7.20
2023-02-25T02:11:17.244Z,11.47
2023-02-25T02:13:20.194Z,10.33
2023-02-25T02:15:22.330Z,5.87
2023-02-25T02:17:30.103Z,7.97
2023-02-25T02:19:42.148Z,6.63
2023-02-25T02:21:56.675Z,3.27
2023-02-25T02:24:19.780Z,5.03
2023-02-25T02:26:46.404Z,8.03
2023-02-25T02:29:20.001Z,12.27
2023-02-25T02:31:43.996Z,8.47
2023-02-25T02:33:59.539Z,19.80
2023-02-25T02:36:52.846Z,7.53
2023-02-25T02:39:14.746Z,14.50
2023-02-25T02:41:36.671Z,19.60
2023-02-25T02:43:45.600Z,4.57
2023-02-25T02:46:02.527Z,8.23
2023-02-25T02:48:08.926Z,7.40
2023-02-25T02:50:27.592Z,7.23
2023-02-25T02:52:33.932Z,7.47
2023-02-25T02:54:37.881Z,6.80
2023-02-25T02:56:42.811Z,7.10
2023-02-25T02:58:48.308Z,11.50
2023-02-25T03:00:55.832Z,5.07
2023-02-25T03:03:07.598Z,5.10
2023-02-25T03:05:13.177Z,4.57
2023-02-25T03:07:17.967Z,5.43
2023-02-25T03:09:31.062Z,9.10
2023-02-25T03:11:33.725Z,5.70
2023-02-25T03:13:36.244Z,3.87
2023-02-25T03:15:39.681Z,3.23
2023-02-25T03:17:46.111Z,4.97
2023-02-25T03:19:52.977Z,6.37
2023-02-25T03:21:59.378Z,3.63
2023-02-25T03:24:03.060Z,9.23
2023-02-25T03:26:14.757Z,6.40
2023-02-25T03:28:27.451Z,4.57
2023-02-25T03:30:35.718Z,6.10
2023-02-25T03:32:41.242Z,5.97
2023-02-25T03:34:47.740Z,3.40
2023-02-25T03:36:57.069Z,4.50
2023-02-25T03:39:09.929Z,4.70
2023-02-25T03:41:15.456Z,4.13
2023-02-25T03:43:31.379Z,5.20
2023-02-25T03:45:36.512Z,3.90
2023-02-25T03:47:39.593Z,3.03
2023-02-25T03:49:48.609Z,2.60
2023-02-25T03:51:52.640Z,2.70
2023-02-25T03:53:55.709Z,4.87
2023-02-25T03:56:09.138Z,2.63
2023-02-25T03:58:12.613Z,5.60
2023-02-25T04:00:19.264Z,3.00
2023-02-25T04:02:22.583Z,3.43
2023-02-25T04:04:24.905Z,5.27
2023-02-25T04:06:27.391Z,3.17
2023-02-25T04:08:29.570Z,3.30
2023-02-25T04:10:32.068Z,2.50
2023-02-25T04:12:35.276Z,3.57
2023-02-25T04:14:37.411Z,2.93
2023-02-25T04:16:39.560Z,3.93
2023-02-25T04:18:42.492Z,3.40
2023-02-25T04:20:44.699Z,3.00
2023-02-25T04:22:46.929Z,2.63
2023-02-25T04:24:49.057Z,3.50
2023-02-25T04:26:57.949Z,3.77
2023-02-25T04:29:00.173Z,6.33
2023-02-25T04:31:02.607Z,3.20
2023-02-25T04:33:05.024Z,5.83
2023-02-25T04:35:11.732Z,5.93
2023-02-25T04:37:13.921Z,5.40
2023-02-25T04:39:16.945Z,3.40
2023-02-25T04:41:19.103Z,2.80
2023-02-25T04:43:21.224Z,3.63
2023-02-25T04:45:26.864Z,3.80
2023-02-25T04:47:29.377Z,3.60
2023-02-25T04:49:31.650Z,2.97
2023-02-25T04:51:34.119Z,5.70
2023-02-25T04:53:36.643Z,4.00
2023-02-25T04:55:38.722Z,5.33
2023-02-25T04:57:42.491Z,3.77
2023-02-25T04:59:44.769Z,5.97
2023-02-25T05:01:47.037Z,7.20
2023-02-25T05:03:49.416Z,5.60
2023-02-25T05:05:52.187Z,5.10
2023-02-25T05:07:54.384Z,6.07
2023-02-25T05:09:56.509Z,4.87
2023-02-25T05:11:58.647Z,3.30
2023-02-25T05:14:01.217Z,6.13
2023-02-25T05:16:11.644Z,4.40
2023-02-25T05:18:14.285Z,5.33
2023-02-25T05:20:17.065Z,4.00
2023-02-25T05:22:19.231Z,6.77
2023-02-25T05:24:23.744Z,3.60
2023-02-25T05:26:26.317Z,4.60
2023-02-25T05:28:28.558Z,3.73
2023-02-25T05:30:30.770Z,5.07
2023-02-25T05:32:32.976Z,4.73
2023-02-25T05:34:35.520Z,3.70
2023-02-25T05:36:37.652Z,4.27
2023-02-25T05:38:40.799Z,4.27
2023-02-25T05:40:42.989Z,3.93
2023-02-25T05:42:49.401Z,3.53
2023-02-25T05:44:51.518Z,3.77
2023-02-25T05:46:53.734Z,4.97
2023-02-25T05:48:55.994Z,11.50
2023-02-25T05:51:03.685Z,3.37
2023-02-25T05:53:05.881Z,3.53
2023-02-25T05:55:09.540Z,4.83
2023-02-25T05:57:11.692Z,4.40
2023-02-25T05:59:13.965Z,3.30
2023-02-25T06:01:19.084Z,3.10
2023-02-25T06:03:21.316Z,3.20
2023-02-25T06:05:23.508Z,4.40
2023-02-25T06:07:25.617Z,3.30
2023-02-25T06:09:28.175Z,3.97
2023-02-25T06:11:30.747Z,8.33
2023-02-25T06:13:33.166Z,8.40
2023-02-25T06:15:40.143Z,8.03
2023-02-25T06:17:42.488Z,3.67
2023-02-25T06:19:44.604Z,3.47
2023-02-25T06:21:46.731Z,3.53
2023-02-25T06:23:50.479Z,4.20
2023-02-25T06:25:52.644Z,3.70
2023-02-25T06:27:54.792Z,4.40
2023-02-25T06:29:58.762Z,3.50
2023-02-25T06:32:02.659Z,3.63
2023-02-25T06:34:05.358Z,3.43
2023-02-25T06:36:08.400Z,3.23
2023-02-25T06:38:10.770Z,3.17
2023-02-25T06:40:13.317Z,3.33
2023-02-25T06:42:15.529Z,3.33
2023-02-25T06:44:17.929Z,4.40
2023-02-25T06:46:22.343Z,6.13
2023-02-25T06:48:24.810Z,4.50
2023-02-25T06:50:27.091Z,5.73
2023-02-25T06:52:29.184Z,2.73
2023-02-25T06:54:31.308Z,3.83
2023-02-25T06:56:33.490Z,3.30
2023-02-25T06:58:36.726Z,3.93
2023-02-25T07:00:39.998Z,2.90
2023-02-25T07:02:42.159Z,7.43
2023-02-25T07:04:44.436Z,2.87
2023-02-25T07:06:46.596Z,3.07
2023-02-25T07:08:48.744Z,6.50
2023-02-25T07:10:50.901Z,2.87
2023-02-25T07:12:53.590Z,2.63
2023-02-25T07:14:55.748Z,4.73
2023-02-25T07:16:57.914Z,4.07
2023-02-25T07:19:02.319Z,3.50
2023-02-25T07:21:05.217Z,3.00
2023-02-25T07:23:07.341Z,2.60
2023-02-25T07:25:13.494Z,2.97
2023-02-25T07:27:15.614Z,5.20
2023-02-25T07:29:17.585Z,3.53
2023-02-25T07:31:22.065Z,3.17
2023-02-25T07:33:24.427Z,5.10
2023-02-25T07:35:26.491Z,9.23
2023-02-25T07:37:28.452Z,4.23
2023-02-25T07:39:30.471Z,24.07
2023-02-25T07:41:32.856Z,18.00
2023-02-25T07:43:38.348Z,4.63
2023-02-25T07:45:41.083Z,12.83
2023-02-25T07:47:43.170Z,4.33
2023-02-25T07:49:45.341Z,5.30
2023-02-25T07:51:47.401Z,3.10
2023-02-25T07:53:50.693Z,5.30
2023-02-25T07:55:53.064Z,3.70
2023-02-25T07:57:55.151Z,4.73
2023-02-25T07:59:58.517Z,3.80
2023-02-25T08:02:00.650Z,6.13
2023-02-25T08:04:04.633Z,3.60
2023-02-25T08:06:08.282Z,3.13
2023-02-25T08:08:10.300Z,5.43
2023-02-25T08:10:12.621Z,5.17
2023-02-25T08:12:14.643Z,4.93
2023-02-25T08:14:16.769Z,3.60
2023-02-25T08:16:20.668Z,6.50
2023-02-25T08:18:22.881Z,4.67
2023-02-25T08:20:24.910Z,3.47
2023-02-25T08:22:26.849Z,3.93
2023-02-25T08:24:28.821Z,6.90
2023-02-25T08:26:30.773Z,4.73
2023-02-25T08:28:35.442Z,4.60
2023-02-25T08:30:38.981Z,6.80
2023-02-25T08:32:41.978Z,3.43
2023-02-25T08:34:44.182Z,4.20
2023-02-25T08:36:46.187Z,17.97
2023-02-25T08:38:48.947Z,3.80
2023-02-25T08:40:51.038Z,4.83
2023-02-25T08:42:53.047Z,6.03
2023-02-25T08:44:55.606Z,6.83
2023-02-25T08:46:57.925Z,3.33
2023-02-25T08:49:00.217Z,4.63
2023-02-25T08:51:09.813Z,4.30
2023-02-25T08:53:12.317Z,5.53
2023-02-25T08:55:15.274Z,4.90
2023-02-25T08:57:17.296Z,3.90
2023-02-25T08:59:19.359Z,4.10
2023-02-25T09:01:22.256Z,3.80
2023-02-25T09:03:24.772Z,4.93
2023-02-25T09:05:26.935Z,10.73
2023-02-25T09:07:29.118Z,8.70
2023-02-25T09:09:31.984Z,6.30
2023-02-25T09:11:34.293Z,6.73
2023-02-25T09:13:36.263Z,5.00
2023-02-25T09:15:38.222Z,10.63
2023-02-25T09:17:40.617Z,6.43
2023-02-25T09:19:42.604Z,11.50
2023-02-25T09:21:48.327Z,6.03
2023-02-25T09:23:53.929Z,6.80
2023-02-25T09:25:55.868Z,6.77
2023-02-25T09:27:57.866Z,5.10
2023-02-25T09:29:59.907Z,6.57
2023-02-25T09:32:02.251Z,6.03
2023-02-25T09:34:07.812Z,4.97
2023-02-25T09:36:13.788Z,8.33
2023-02-25T09:38:15.825Z,7.93
2023-02-25T09:40:22.813Z,5.03
2023-02-25T09:42:28.401Z,8.83
2023-02-25T09:44:33.126Z,9.30
2023-02-25T09:46:41.389Z,8.40
2023-02-25T09:48:55.413Z,4.53
2023-02-25T09:51:04.046Z,7.00
2023-02-25T09:53:09.252Z,9.00
2023-02-25T09:55:24.395Z,8.53
2023-02-25T09:57:27.420Z,3.93
2023-02-25T09:59:29.959Z,8.10
2023-02-25T10:01:34.342Z,6.30
2023-02-25T10:04:13.744Z,5.03
2023-02-25T10:06:23.372Z,5.17
2023-02-25T10:08:35.364Z,5.83
2023-02-25T10:10:51.560Z,4.50
2023-02-25T10:13:21.555Z,3.80
2023-02-25T10:15:35.955Z,5.63
2023-02-25T10:18:07.011Z,4.00
2023-02-25T10:20:53.733Z,3.27
2023-02-25T10:23:05.264Z,3.90
2023-02-25T10:25:21.126Z,7.63
2023-02-25T10:27:33.177Z,4.23
2023-02-25T10:29:48.118Z,2.97
2023-02-25T10:31:50.306Z,9.33
2023-02-25T10:33:58.110Z,3.60
2023-02-25T10:36:05.633Z,3.57
2023-02-25T10:38:10.562Z,3.60
2023-02-25T10:40:16.695Z,3.03
2023-02-25T10:42:18.864Z,4.93
2023-02-25T10:44:21.505Z,3.60
2023-02-25T10:46:32.681Z,3.50
2023-02-25T10:48:35.414Z,3.73
2023-02-25T10:50:45.572Z,3.67
2023-02-25T10:53:04.990Z,3.37
2023-02-25T10:55:26.171Z,3.90
2023-02-25T10:57:36.738Z,3.10
2023-02-25T10:59:40.183Z,3.50
2023-02-25T11:01:42.790Z,3.67
2023-02-25T11:03:46.883Z,2.73
2023-02-25T11:05:48.855Z,3.53
2023-02-25T11:07:50.792Z,4.03
2023-02-25T11:10:21.460Z,3.97
2023-02-25T11:12:24.828Z,2.83
2023-02-25T11:14:31.411Z,3.30
2023-02-25T11:16:36.436Z,3.17
2023-02-25T11:18:39.006Z,2.60
2023-02-25T11:20:49.664Z,4.87
2023-02-25T11:22:53.221Z,2.90
2023-02-25T11:24:59.769Z,2.53
2023-02-25T11:27:03.903Z,2.70
2023-02-25T11:29:33.681Z,2.47
2023-02-25T11:31:40.084Z,2.60
2023-02-25T11:33:49.560Z,1.87
2023-02-25T11:35:59.948Z,2.43
2023-02-25T11:38:24.860Z,2.57
2023-02-25T11:40:32.403Z,3.00
2023-02-25T11:42:34.532Z,3.60
2023-02-25T11:44:44.816Z,2.40
2023-02-25T11:46:56.738Z,3.10
2023-02-25T11:49:19.401Z,2.30
2023-02-25T11:51:40.888Z,2.20
2023-02-25T11:53:48.767Z,2.10
2023-02-25T11:56:02.110Z,2.60
2023-02-25T11:58:25.345Z,2.57
2023-02-25T12:01:18.020Z,2.40
2023-02-25T12:03:38.528Z,1.93
2023-02-25T12:05:50.479Z,2.20
2023-02-25T12:08:12.908Z,2.13
2023-02-25T12:10:35.410Z,1.70
2023-02-25T12:12:46.520Z,1.77
2023-02-25T12:15:19.575Z,1.93
2023-02-25T12:17:43.295Z,2.50
2023-02-25T12:19:51.393Z,2.13
2023-02-25T12:22:34.471Z,2.07
2023-02-25T12:24:45.355Z,1.77
2023-02-25T12:27:18.678Z,1.80
2023-02-25T12:29:37.070Z,1.67
2023-02-25T12:31:58.321Z,1.77
2023-02-25T12:34:30.750Z,1.80
2023-02-25T12:36:42.100Z,3.53
2023-02-25T12:38:49.844Z,2.03
2023-02-25T12:41:16.940Z,1.40
2023-02-25T12:43:55.838Z,1.73
2023-02-25T12:46:07.703Z,1.90
2023-02-25T12:48:22.321Z,1.70
2023-02-25T12:50:30.230Z,2.73
2023-02-25T12:53:06.208Z,3.23
2023-02-25T12:55:08.258Z,2.03
2023-02-25T12:57:43.678Z,2.00
2023-02-25T13:00:09.463Z,1.87
2023-02-25T13:02:26.333Z,2.50
2023-02-25T13:05:00.629Z,2.30
2023-02-25T13:07:29.062Z,2.07
2023-02-25T13:09:51.088Z,2.80
2023-02-25T13:12:12.085Z,2.47
2023-02-25T13:14:42.662Z,3.43
2023-02-25T13:17:08.919Z,3.33
2023-02-25T13:19:36.040Z,2.00
2023-02-25T13:21:46.890Z,53.07
2023-02-25T13:23:59.319Z,2.50
2023-02-25T13:26:38.810Z,1.80
2023-02-25T13:29:01.946Z,3.10
2023-02-25T13:31:19.368Z,2.33
2023-02-25T13:33:46.110Z,3.03
2023-02-25T13:36:09.594Z,2.37
2023-02-25T13:38:35.684Z,1.97
2023-02-25T13:40:48.608Z,5.20
2023-02-25T13:43:09.212Z,1.80
2023-02-25T13:45:26.132Z,1.90
2023-02-25T13:47:32.671Z,2.43
2023-02-25T13:49:57.392Z,4.63
2023-02-25T13:52:13.785Z,4.80
2023-02-25T13:54:46.439Z,2.97
2023-02-25T13:57:00.397Z,4.47
2023-02-25T13:59:22.747Z,2.50
2023-02-25T14:01:49.498Z,1.70
2023-02-25T14:04:16.041Z,2.00
2023-02-25T14:06:48.068Z,1.93
2023-02-25T14:08:53.109Z,2.47
2023-02-25T14:11:01.227Z,2.40
2023-02-25T14:13:26.591Z,2.40
2023-02-25T14:15:35.890Z,3.10
2023-02-25T14:17:59.849Z,2.47
2023-02-25T14:20:21.094Z,6.87
2023-02-25T14:22:29.245Z,2.77
2023-02-25T14:24:50.128Z,1.90
2023-02-25T14:27:13.887Z,3.20
2023-02-25T14:29:38.988Z,2.40
2023-02-25T14:32:11.758Z,3.13
2023-02-25T14:34:25.946Z,2.40
2023-02-25T14:37:05.400Z,2.70
2023-02-25T14:39:44.440Z,4.30
2023-02-25T14:42:04.986Z,3.07
2023-02-25T14:44:12.800Z,5.90
2023-02-25T14:46:53.001Z,4.70
2023-02-25T14:49:03.911Z,3.07
2023-02-25T14:51:32.279Z,2.83
2023-02-25T14:53:40.399Z,3.57
2023-02-25T14:56:21.350Z,2.47
2023-02-25T14:58:29.385Z,11.63
2023-02-25T15:00:58.797Z,2.70
2023-02-25T15:03:22.616Z,2.70
2023-02-25T15:06:01.842Z,2.67
2023-02-25T15:08:19.436Z,5.00
2023-02-25T15:10:27.226Z,2.67
2023-02-25T15:12:41.469Z,6.70
2023-02-25T15:14:59.132Z,3.00
2023-02-25T15:17:17.843Z,2.80
2023-02-25T15:19:38.158Z,3.83
2023-02-25T15:21:46.434Z,4.10
2023-02-25T15:23:51.871Z,2.33
2023-02-25T15:26:21.768Z,1.90
2023-02-25T15:28:29.534Z,2.63
2023-02-25T15:31:06.032Z,2.33
2023-02-25T15:33:27.369Z,1.97
2023-02-25T15:35:35.359Z,2.20
2023-02-25T15:37:57.372Z,2.80
2023-02-25T15:40:14.661Z,3.53
2023-02-25T15:42:16.971Z,6.70
2023-02-25T15:44:28.875Z,3.00
2023-02-25T15:46:33.744Z,5.73
2023-02-25T15:48:38.437Z,4.10
2023-02-25T15:50:43.477Z,2.10
2023-02-25T15:52:57.094Z,2.53
2023-02-25T15:55:19.661Z,3.27
2023-02-25T15:57:21.573Z,2.80
2023-02-25T15:59:42.284Z,5.80
2023-02-25T16:01:45.968Z,4.20
2023-02-25T16:03:48.552Z,2.90
2023-02-25T16:05:51.738Z,2.27
2023-02-25T16:08:13.061Z,2.57
2023-02-25T16:10:16.571Z,5.27
2023-02-25T16:12:19.068Z,3.40
2023-02-25T16:14:25.077Z,2.73
2023-02-25T16:16:28.058Z,5.43
2023-02-25T16:18:44.576Z,4.20
2023-02-25T16:20:49.458Z,5.33
2023-02-25T16:22:58.038Z,2.23
2023-02-25T16:25:01.881Z,4.10
2023-02-25T16:27:07.009Z,2.50
2023-02-25T16:29:45.324Z,3.33
2023-02-25T16:32:01.958Z,6.40
2023-02-25T16:34:07.231Z,5.13
2023-02-25T16:36:21.705Z,8.70
2023-02-25T16:38:47.575Z,4.40
2023-02-25T16:40:50.120Z,2.97
2023-02-25T16:42:53.340Z,3.40
2023-02-25T16:44:57.850Z,2.97
2023-02-25T16:47:00.109Z,3.07
2023-02-25T16:49:04.725Z,3.73
2023-02-25T16:51:20.246Z,5.60
2023-02-25T16:53:25.268Z,9.33
2023-02-25T16:55:33.554Z,3.67
2023-02-25T16:57:38.901Z,3.50
2023-02-25T16:59:41.264Z,6.33
2023-02-25T17:01:57.420Z,6.43
2023-02-25T17:04:23.293Z,3.03
2023-02-25T17:06:25.891Z,4.10
2023-02-25T17:08:28.283Z,2.67
2023-02-25T17:10:37.252Z,4.13
2023-02-25T17:12:47.558Z,3.10
2023-02-25T17:14:51.300Z,4.60
2023-02-25T17:16:53.538Z,3.50
2023-02-25T17:19:01.120Z,2.83
2023-02-25T17:21:35.687Z,5.10
2023-02-25T17:23:40.846Z,3.83
2023-02-25T17:25:48.509Z,3.17
2023-02-25T17:27:50.717Z,6.70
2023-02-25T17:29:52.908Z,4.53
2023-02-25T17:31:55.907Z,5.17
2023-02-25T17:34:04.154Z,3.77
2023-02-25T17:36:10.170Z,10.90
2023-02-25T17:38:15.979Z,4.33
2023-02-25T17:40:19.768Z,3.50
2023-02-25T17:42:27.466Z,3.77
2023-02-25T17:44:42.600Z,7.27
2023-02-25T17:46:49.210Z,6.73
2023-02-25T17:48:55.148Z,5.10
2023-02-25T17:51:01.797Z,5.27
2023-02-25T17:53:05.331Z,3.47
2023-02-25T17:55:21.920Z,5.83
2023-02-25T17:57:25.757Z,5.20
2023-02-25T17:59:28.108Z,4.07
2023-02-25T18:01:44.380Z,5.80
2023-02-25T18:03:47.337Z,2.37
2023-02-25T18:05:59.096Z,2.47
2023-02-25T18:08:10.628Z,2.97
2023-02-25T18:10:31.324Z,5.50
2023-02-25T18:12:35.543Z,2.90
2023-02-25T18:14:43.598Z,2.73
2023-02-25T18:16:45.756Z,2.47
2023-02-25T18:18:52.563Z,2.40
2023-02-25T18:20:58.114Z,3.00
2023-02-25T18:23:01.597Z,5.23
2023-02-25T18:25:07.807Z,3.73
2023-02-25T18:27:15.970Z,2.80
2023-02-25T18:29:19.633Z,3.77
2023-02-25T18:31:22.548Z,3.13
2023-02-25T18:33:24.723Z,3.30
2023-02-25T18:35:28.645Z,5.27
2023-02-25T18:37:32.895Z,2.90
2023-02-25T18:39:36.976Z,3.67
2023-02-25T18:41:39.313Z,2.43
2023-02-25T18:43:42.817Z,7.53
2023-02-25T18:45:45.513Z,2.83
2023-02-25T18:47:47.987Z,7.80
2023-02-25T18:49:50.262Z,5.83
2023-02-25T18:51:52.472Z,6.17
2023-02-25T18:53:54.761Z,7.93
2023-02-25T18:55:57.357Z,4.40
2023-02-25T18:57:59.858Z,3.00
2023-02-25T19:00:02.052Z,3.53
2023-02-25T19:02:04.345Z,2.93
2023-02-25T19:04:06.508Z,2.73
2023-02-25T19:06:09.608Z,5.93
2023-02-25T19:08:13.260Z,5.60
2023-02-25T19:10:24.822Z,5.17
2023-02-25T19:12:29.184Z,2.63
2023-02-25T19:14:31.643Z,3.50
2023-02-25T19:16:33.842Z,3.30
2023-02-25T19:18:37.619Z,4.53
2023-02-25T19:20:39.909Z,2.80
2023-02-25T19:22:47.026Z,5.00
2023-02-25T19:24:49.611Z,3.40
2023-02-25T19:26:51.758Z,3.20
2023-02-25T19:28:53.868Z,4.90
2023-02-25T19:30:56.164Z,3.90
2023-02-25T19:33:03.556Z,4.20
2023-02-25T19:35:08.559Z,10.23
2023-02-25T19:37:11.819Z,3.50
2023-02-25T19:39:13.969Z,5.00
2023-02-25T19:41:16.184Z,3.17
2023-02-25T19:43:18.555Z,2.37
2023-02-25T19:45:22.776Z,2.73
2023-02-25T19:47:25.098Z,3.33
2023-02-25T19:49:27.968Z,3.83
2023-02-25T19:51:30.392Z,4.87
2023-02-25T19:53:32.654Z,2.57
2023-02-25T19:55:34.969Z,4.80
2023-02-25T19:57:38.091Z,2.70
2023-02-25T19:59:40.288Z,3.47
2023-02-25T20:01:43.020Z,3.10
2023-02-25T20:03:45.201Z,3.27
2023-02-25T20:05:47.482Z,4.57
2023-02-25T20:07:49.642Z,3.13
2023-02-25T20:09:51.787Z,3.00
2023-02-25T20:11:55.650Z,2.70
2023-02-25T20:13:57.915Z,4.13
2023-02-25T20:16:01.464Z,4.07
2023-02-25T20:18:03.952Z,3.23
2023-02-25T20:20:08.437Z,2.97
2023-02-25T20:22:11.227Z,2.97
2023-02-25T20:24:13.908Z,4.03
2023-02-25T20:26:18.598Z,3.70
2023-02-25T20:28:23.992Z,2.80
2023-02-25T20:30:26.203Z,2.60
2023-02-25T20:32:29.937Z,3.10
2023-02-25T20:34:32.312Z,2.27
2023-02-25T20:36:40.108Z,2.87
2023-02-25T20:38:51.047Z,2.93
2023-02-25T20:40:53.346Z,4.30
2023-02-25T20:42:55.684Z,3.97
2023-02-25T20:44:58.863Z,7.37
2023-02-25T20:47:01.436Z,2.70
2023-02-25T20:49:04.694Z,2.63
2023-02-25T20:51:08.010Z,3.87
2023-02-25T20:53:10.177Z,5.30
2023-02-25T20:55:12.412Z,5.30
2023-02-25T20:57:17.248Z,4.40
2023-02-25T20:59:19.549Z,2.60
2023-02-25T21:01:22.291Z,2.70
2023-02-25T21:03:24.412Z,3.50
2023-02-25T21:05:26.572Z,3.50
2023-02-25T21:07:28.762Z,2.83
2023-02-25T21:09:31.232Z,7.57
2023-02-25T21:11:33.658Z,4.30
2023-02-25T21:13:36.384Z,3.57
2023-02-25T21:15:38.516Z,3.43
2023-02-25T21:17:40.694Z,3.13
2023-02-25T21:19:43.039Z,4.07
2023-02-25T21:21:45.156Z,3.40
2023-02-25T21:23:47.588Z,6.27
2023-02-25T21:25:49.686Z,3.20
2023-02-25T21:27:51.841Z,8.50
2023-02-25T21:29:54.002Z,3.03
2023-02-25T21:31:56.733Z,4.77
2023-02-25T21:33:59.942Z,3.80
2023-02-25T21:36:03.084Z,3.57
2023-02-25T21:38:05.182Z,4.30
2023-02-25T21:40:07.673Z,4.17
2023-02-25T21:42:09.840Z,3.47
2023-02-25T21:44:12.644Z,4.30
2023-02-25T21:46:16.407Z,3.17
2023-02-25T21:48:18.625Z,5.43
2023-02-25T21:50:21.052Z,5.90
2023-02-25T21:52:23.602Z,4.83
2023-02-25T21:54:25.897Z,4.50
2023-02-25T21:56:29.266Z,3.33
2023-02-25T21:58:31.394Z,2.20
2023-02-25T22:00:33.531Z,3.50
2023-02-25T22:02:35.684Z,6.70
2023-02-25T22:04:37.908Z,3.17
2023-02-25T22:06:40.250Z,2.93
2023-02-25T22:08:43.634Z,4.83
2023-02-25T22:10:45.735Z,4.17
2023-02-25T22:12:47.852Z,3.20
2023-02-25T22:14:50.171Z,4.23
2023-02-25T22:16:52.383Z,4.43
2023-02-25T22:18:54.639Z,5.93
2023-02-25T22:21:05.411Z,3.50
2023-02-25T22:23:07.762Z,3.50
2023-02-25T22:25:10.059Z,5.30
2023-02-25T22:27:12.133Z,3.23
2023-02-25T22:29:14.299Z,4.33
2023-02-25T22:31:17.716Z,5.50
2023-02-25T22:33:19.985Z,4.20
2023-02-25T22:35:22.158Z,3.30
2023-02-25T22:37:24.968Z,5.83
2023-02-25T22:39:27.172Z,6.50
2023-02-25T22:41:30.433Z,4.30
2023-02-25T22:43:33.605Z,4.90
2023-02-25T22:45:35.744Z,2.77
2023-02-25T22:47:37.894Z,4.00
2023-02-25T22:49:40.078Z,3.70
2023-02-25T22:51:44.700Z,3.20
2023-02-25T22:53:46.838Z,3.20
2023-02-25T22:55:48.997Z,4.20
2023-02-25T22:57:51.135Z,3.90
2023-02-25T22:59:53.294Z,5.33
2023-02-25T23:01:55.672Z,3.27
2023-02-25T23:03:58.568Z,2.93
2023-02-25T23:06:00.891Z,11.43
2023-02-25T23:08:04.005Z,2.77
2023-02-25T23:10:07.187Z,2.73
2023-02-25T23:12:09.300Z,4.10
2023-02-25T23:14:11.641Z,3.73
2023-02-25T23:16:21.630Z,2.80
2023-02-25T23:18:23.934Z,2.53
2023-02-25T23:20:26.036Z,6.00
2023-02-25T23:22:30.534Z,4.60
2023-02-25T23:24:32.869Z,3.20
2023-02-25T23:26:40.230Z,3.33
2023-02-25T23:28:42.493Z,3.90
2023-02-25T23:30:44.927Z,2.63
2023-02-25T23:32:47.127Z,3.90
2023-02-25T23:34:49.714Z,5.97
2023-02-25T23:36:55.469Z,3.60
2023-02-25T23:39:00.293Z,4.63
2023-02-25T23:41:02.459Z,2.77
2023-02-25T23:43:04.601Z,3.83
2023-02-25T23:45:08.859Z,11.20
2023-02-25T23:47:11.026Z,3.93
2023-02-25T23:49:15.353Z,4.80
2023-02-25T23:51:17.540Z,2.80
2023-02-25T23:53:19.665Z,6.50
2023-02-25T23:55:22.436Z,9.87
2023-02-25T23:57:24.579Z,2.93
2023-02-25T23:59:26.835Z,3.23
